MET'MAP v2.0
soon released !

Expected late october,
this new version will be
more efficient, smarter,
and hosted on a brand new
server x3 powerfull...
...and still free !


Not compatible ?
Try the mobile version !

LOG IN : | Subscribe | Disclaimer | Who is Orbifly ? |
ICAO code :

TAF - EPMI Miroslawiec - 17 Feb 2020 17:33 UTC - Data Source NOAA   


- Airport Elevation : 459 ft
- No reported NOTAMs.


EPMI - Miroslawiec

NO METAR
TAF TAF EPMI
Valid from the 17 at 15:00 until the 18 at 00:00 UTC


171400Z 1715/1724 24016KT CAVOK
TEMPO 1715/1718 23020G35KT

Source NOAA


MET'MAP, your aeronautical weather chart ! - Copyright ORBIFLY December 2007

Programming & Development : Alexandra Zaïnal
Co-Developer : Marc-Olivier Méhu
Technical & hardware support : Manuel Goepfert
Concept & Financing : Baudouin d'Aumeries